• Join FlightAware (Why Join?)
  • Login
  • US Flag 
09:15PM EST


 

Airport Tracker/Info


-or-


 

Live Flight TrackerFlight Track Log ✈ N880QS ✈ 17-May-2012 ✈ KBOS - KMDW

Flight Track Log - Related Links

Times and Time Zones

All times are in EDT time to prevent confusion due to time zone crossing. See the N880QS flight status page for this flight to view local times or setup timezone preferences in your user account.

Time Position Orientation Groundspeed Altitude Reporting Facility
EDT Latitude Longitude Course Direction KTS MPH feet Rate Location/Type
06:05PM 42.3667 -70.9833 71° East 183 211 600  Level Boston TRACON
06:07PM 42.4114 -70.8036 11° North 260 299 8,400 3,600 Climbing Boston Center
06:08PM 42.4822 -70.7847 322° Northwest 231 266 11,800 3,480 Climbing Boston Center
06:09PM 42.5372 -70.8425 308° West 198 228 15,400 3,300 Climbing Boston Center
06:10PM 42.5797 -70.9175 307° West 220 253 18,400 2,400 Climbing Boston Center
06:11PM 42.6289 -71.0067 310° West 268 308 20,200 1,860 Climbing Boston Center
06:12PM 42.6842 -71.0956 308° West 294 338 22,200 2,040 Climbing Boston Center
06:13PM 42.7394 -71.1933 309° West 318 366 24,300 1,980 Climbing Boston Center
06:14PM 42.7969 -71.2914 314° West 324 373 26,200 1,800 Climbing Boston Center
06:15PM 42.8622 -71.3836 280° West 330 380 27,900 1,740 Climbing Boston Center
06:16PM 42.8781 -71.5053 279° West 313 360 29,700 1,680 Climbing Boston Center
06:17PM 42.8914 -71.6156 277° West 318 366 31,300 1,140 Climbing Boston Center
06:18PM 42.9025 -71.7428 275° West 330 380 32,000 300 Climbing Boston Center
06:19PM 42.9117 -71.8761 277° West 344 396 32,000  Level Boston Center
06:20PM 42.9247 -72.0147 275° West 364 419 32,000  Level Boston Center
06:21PM 42.9336 -72.1564 276° West 374 430 32,000  Level Boston Center
06:22PM 42.9464 -72.3125 277° West 380 437 32,000  Level Boston Center
06:23PM 42.9589 -72.4600 276° West 386 444 32,000  Level Boston Center
06:24PM 42.9692 -72.6047 272° West 386 444 32,000  Level Boston Center
06:25PM 42.9731 -72.7381 275° West 386 444 32,000  Level Boston Center
06:26PM 42.9831 -72.8828 276° West 386 444 32,000  Level Boston Center
06:27PM 42.9950 -73.0333 275° West 392 451 32,000  Level Boston Center
06:28PM 43.0044 -73.1783 276° West 392 451 32,000  Level Boston Center
06:29PM 43.0158 -73.3289 273° West 392 451 32,000  Level Boston Center
06:30PM 43.0208 -73.4708 275° West 386 444 32,000  Level Boston Center
06:31PM 43.0300 -73.6189 275° West 386 444 32,000  Level Boston Center
06:32PM 43.0386 -73.7694 275° West 386 444 32,000  Level Boston Center
06:33PM 43.0472 -73.9175 276° West 386 444 32,000  Level Boston Center
06:34PM 43.0578 -74.0683 273° West 386 444 32,000  Level Boston Center
06:35PM 43.0639 -74.2192 275° West 391 450 32,000  Level Boston Center
06:36PM 43.0739 -74.3700 274° West 396 456 32,000  Level Boston Center
06:37PM 43.0817 -74.5181 274° West 401 461 32,000  Level Boston Center
06:38PM 43.0892 -74.6719 275° West 401 461 32,000  Level Boston Center
06:39PM 43.0986 -74.8231 273° West 407 468 32,000  Level Boston Center
06:40PM 43.1056 -74.9856 274° West 402 463 32,000  Level Boston Center
06:41PM 43.1125 -75.1392 273° West 402 463 32,000  Level Boston Center
06:42PM 43.1192 -75.2933 274° West 402 463 32,000  Level Boston Center
06:43PM 43.1278 -75.4472 273° West 402 463 32,000  Level Boston Center
06:44PM 43.1342 -75.5983 258° West 402 463 32,000  Level Boston Center
06:45PM 43.1108 -75.7508 257° West 402 463 32,000  Level Boston Center
06:46PM 43.0856 -75.9031 258° West 407 468 32,000  Level Boston Center
06:48PM 43.0311 -76.2456 257° West 415 478 32,000  Level Cleveland Center
06:49PM 43.0056 -76.3981 258° West 420 483 32,000  Level Cleveland Center
06:50PM 42.9817 -76.5472 256° West 420 483 32,000  Level Cleveland Center
06:51PM 42.9536 -76.7022 258° West 420 483 32,000  Level Cleveland Center
06:52PM 42.9294 -76.8569 258° West 420 483 32,000  Level Cleveland Center
06:53PM 42.9053 -77.0117 256° West 420 483 32,000  Level Cleveland Center
06:54PM 42.8767 -77.1661 258° West 420 483 32,000  Level Cleveland Center
06:55PM 42.8519 -77.3233 257° West 420 483 32,000  Level Cleveland Center
06:56PM 42.8269 -77.4747 256° West 420 483 32,000  Level Cleveland Center
06:57PM 42.7978 -77.6319 256° West 420 483 32,000  Level Cleveland Center
06:58PM 42.7703 -77.7858 258° West 420 483 32,000  Level Cleveland Center
06:59PM 42.7467 -77.9311 256° West 425 489 32,000 -60 Level Cleveland Center
07:00PM 42.7167 -78.0908 257° West 430 495 31,900  Descending Cleveland Center
07:01PM 42.6928 -78.2358 257° West 430 495 32,000  Climbing Cleveland Center
07:02PM 42.6647 -78.3950 256° West 430 495 32,000  Level Cleveland Center
07:03PM 42.6325 -78.5739 257° West 436 502 32,000  Level Cleveland Center
07:04PM 42.6078 -78.7156 255° West 441 507 32,000  Level Cleveland Center
07:05PM 42.5767 -78.8717 256° West 439 505 32,000  Level Cleveland Center
07:06PM 42.5458 -79.0417 256° West 434 499 32,000  Level Cleveland Center
07:07PM 42.5167 -79.2000 255° West 434 499 32,000  Level Cleveland Center
07:08PM 42.4889 -79.3414 257° West 434 499 32,000  Level Cleveland Center
07:09PM 42.4594 -79.5081 255° West 429 494 32,000  Level Cleveland Center
07:10PM 42.4275 -79.6661 256° West 424 488 32,000  Level Cleveland Center
07:11PM 42.3994 -79.8214 255° West 424 488 32,000  Level Cleveland Center
07:12PM 42.3689 -79.9789 255° West 429 494 32,000  Level Cleveland Center
07:13PM 42.3386 -80.1367 253° West 434 499 32,000  Level Cleveland Center
07:14PM 42.3036 -80.2911 256° West 439 505 32,000  Level Cleveland Center
07:15PM 42.2747 -80.4486 254° West 434 499 32,000  Level Cleveland Center
07:16PM 42.2414 -80.6056 255° West 431 496 32,000  Level Cleveland Center
07:17PM 42.2100 -80.7597 254° West 436 502 32,000  Level Cleveland Center
07:18PM 42.1761 -80.9194 256° West 436 502 32,000  Level Cleveland Center
07:19PM 42.1464 -81.0761 255° West 436 502 32,000  Level Cleveland Center
07:20PM 42.1144 -81.2325 254° West 436 502 32,000  Level Cleveland Center
07:21PM 42.0800 -81.3917 254° West 436 502 32,000  Level Cleveland Center
07:22PM 42.0475 -81.5478 254° West 436 502 32,000  Level Cleveland Center
07:23PM 42.0150 -81.7039 254° West 436 502 32,000  Level Cleveland Center
07:24PM 41.9800 -81.8625 254° West 436 502 32,000  Level Cleveland Center
07:25PM 41.9492 -82.0042 254° West 436 502 32,000 -60 Level Cleveland Center
07:26PM 41.9136 -82.1653 254° West 441 507 31,900  Descending Cleveland Center
07:27PM 41.8800 -82.3206 253° West 441 507 32,000  Climbing Cleveland Center
07:28PM 41.8397 -82.4950 253° West 441 507 32,000  Level Cleveland Center
07:29PM 41.8036 -82.6556 253° West 441 507 32,000  Level Cleveland Center
07:30PM 41.7675 -82.8103 254° West 441 507 32,000  Level Cleveland Center
07:31PM 41.7328 -82.9733 253° West 446 513 32,000  Level Cleveland Center
07:32PM 41.6961 -83.1333 253° West 446 513 32,000  Level Cleveland Center
07:33PM 41.6589 -83.2931 254° West 451 519 32,000  Level Cleveland Center
07:34PM 41.6239 -83.4528 253° West 451 519 32,000  Level Cleveland Center
07:35PM 41.5908 -83.5956 252° West 451 519 32,000  Level Cleveland Center
07:36PM 41.5533 -83.7519 254° West 456 525 32,000  Level Cleveland Center
07:37PM 41.5175 -83.9139 265° West 451 519 32,000  Level Cleveland Center
07:39PM 41.4956 -84.2231 268° West 434 499 32,000  Level Chicago Center
07:40PM 41.4917 -84.3675 267° West 434 499 32,000 -1,020 Level Chicago Center
07:41PM 41.4842 -84.5344 269° West 445 512 30,000 -1,020 Descending Chicago Center
07:42PM 41.4825 -84.6983 273° West 445 512 30,000  Level Chicago Center
07:43PM 41.4894 -84.8725 272° West 440 506 30,000  Level Chicago Center
07:44PM 41.4936 -85.0358 273° West 440 506 30,000 -1,080 Level Chicago Center
07:45PM 41.4997 -85.1992 272° West 440 506 27,900 -2,100 Descending Chicago Center
07:46PM 41.5028 -85.3458 274° West 440 506 25,800 -2,220 Descending Chicago Center
07:47PM 41.5106 -85.5064 273° West 440 506 23,500 -2,280 Descending Chicago Center
07:48PM 41.5161 -85.6753 272° West 433 498 21,300 -2,280 Descending Chicago Center
07:49PM 41.5208 -85.8247 272° West 420 483 19,000 -2,400 Descending Chicago Center
07:50PM 41.5250 -85.9689 272° West 397 457 16,500 -2,280 Descending Chicago Center
07:51PM 41.5286 -86.0906 269° West 382 440 14,500 -2,220 Descending Chicago Center
07:52PM 41.5261 -86.2267 270° West 368 423 12,100 -1,740 Descending Chicago Center
07:53PM 41.5256 -86.3600 269° West 363 418 11,100 -840 Descending Chicago Center
07:54PM 41.5231 -86.5125 270° West 368 423 10,500 -540 Descending Chicago Center
07:55PM 41.5225 -86.6514 272° West 374 430 10,100 -240 Descending Chicago Center
07:56PM 41.5253 -86.7789 267° West 374 430 10,100 -240 Level Chicago Center
07:57PM 41.5197 -86.9067 270° West 372 428 9,700 -960 Descending Chicago Center
07:58PM 41.5200 -87.0147 262° West 331 381 8,200 -1,560 Descending Chicago Center
07:59PM 41.5094 -87.1150 278° West 297 342 6,600 -1,320 Descending Chicago Center
08:00PM 41.5167 -87.1833 270° West 278 320 6,000 -600 Descending Chicago TRACON
08:01PM 41.5167 -87.2833 283° West 272 313 5,600 -660 Descending Chicago TRACON
08:02PM 41.5333 -87.3833 283° West 272 313 4,800 -840 Descending Chicago TRACON
08:03PM 41.5500 -87.4833 283° West 277 319 4,000 -420 Descending Chicago TRACON
08:04PM 41.5667 -87.5833 270° West 271 312 4,000  Level Chicago TRACON
08:05PM 41.5667 -87.6833 283° West 272 313 4,000  Level Chicago TRACON
08:06PM 41.5833 -87.7833 289° West 236 272 4,000 -420 Level Chicago TRACON
08:07PM 41.6000 -87.8500 334° Northwest 232 267 3,200 -540 Descending Chicago TRACON
08:08PM 41.6500 -87.8833 20° North 198 228 3,000 -120 Descending Chicago TRACON
08:09PM 41.6833 -87.8667 26° Northeast 187 215 3,000 -480 Level Chicago TRACON
08:10PM 41.7333 -87.8333 48° Northeast 180 207 2,100 -840 Descending Chicago TRACON
08:11PM 41.7667 -87.7833 48° Northeast 150 173 1,300 -840 Descending Chicago TRACON